Time;durP1;ratioP1;P1;durP2;ratioP2;P2;SDS_P1;SDS_P2;PMS_P1;PMS_P2;Temp;Humidity;BMP_temperature;BMP_pressure;BME280_temperature;BME280_humidity;BME280_pressure;Samples;Min_cycle;Max_cycle;Signal;HPM_P1;HPM_P2
2023/02/08 00:09:44;;;;;;;6.30;2.80;;;-7.00;99.90;;;;;;20905232;28;20102;-61
2023/02/08 00:19:45;;;;;;;5.97;3.00;;;-7.10;99.90;;;;;;20905110;28;20024;-63
2023/02/08 00:29:47;;;;;;;9.90;3.53;;;-7.10;99.90;;;;;;20903921;28;20037;-63
2023/02/08 00:39:49;;;;;;;4.37;1.97;;;-6.80;99.90;;;;;;20902230;28;20032;-60
2023/02/08 00:49:50;;;;;;;5.60;2.20;;;-6.90;99.90;;;;;;20902502;28;20071;-62
2023/02/08 00:59:52;;;;;;;6.30;2.50;;;-7.10;99.90;;;;;;20902034;28;20036;-63
2023/02/08 01:09:54;;;;;;;5.72;2.38;;;-7.20;99.90;;;;;;20903910;28;20041;-63
2023/02/08 01:19:55;;;;;;;4.93;2.10;;;-7.30;99.90;;;;;;20900424;28;20482;-64
2023/02/08 01:29:57;;;;;;;4.83;2.10;;;-7.30;99.90;;;;;;20901123;28;20051;-63
2023/02/08 01:39:59;;;;;;;3.43;1.60;;;-7.30;99.90;;;;;;20900609;28;20478;-63
2023/02/08 01:50:00;;;;;;;4.70;1.10;;;-7.20;99.90;;;;;;20900272;28;20094;-61
2023/02/08 02:00:07;;;;;;;2.40;1.30;;;-7.30;99.90;;;;;;20898651;28;20036;-65
2023/02/08 02:10:21;;;;;;;2.90;1.30;;;-7.30;99.90;;;;;;20897505;28;20033;-59
2023/02/08 02:20:51;;;;;;;3.20;1.20;;;-7.60;99.90;;;;;;20912868;28;20055;-62
2023/02/08 02:31:31;;;;;;;1.87;0.80;;;-7.70;99.90;;;;;;20911373;28;20055;-61
2023/02/08 02:52:24;;;;;;;2.63;1.43;;;-7.80;99.90;;;;;;20794955;28;19943;-63
2023/02/08 03:02:27;;;;;;;3.17;1.27;;;-7.80;99.90;;;;;;20817116;28;20091;-61
2023/02/08 03:12:46;;;;;;;2.43;1.07;;;-8.00;99.90;;;;;;20891417;28;20036;-61
2023/02/08 03:23:14;;;;;;;3.47;1.30;;;-7.90;99.90;;;;;;20908549;28;20029;-61
2023/02/08 03:33:23;;;;;;;4.20;1.57;;;-7.70;99.90;;;;;;20907385;28;20048;-61
2023/02/08 03:43:37;;;;;;;3.23;1.43;;;-7.80;99.90;;;;;;20908006;28;20083;-61
2023/02/08 03:53:42;;;;;;;3.80;1.53;;;-8.00;99.90;;;;;;20906824;28;20353;-63
2023/02/08 04:03:48;;;;;;;5.13;1.57;;;-8.00;99.90;;;;;;20905151;28;20465;-63
2023/02/08 04:13:50;;;;;;;5.03;1.93;;;-8.00;99.90;;;;;;20905337;28;20044;-60
2023/02/08 04:23:52;;;;;;;4.07;1.73;;;-8.00;99.90;;;;;;20904245;28;20017;-60
2023/02/08 04:33:53;;;;;;;5.27;1.70;;;-7.90;99.90;;;;;;20903913;28;20079;-61
2023/02/08 04:43:55;;;;;;;3.63;1.30;;;-7.70;99.90;;;;;;20903388;28;20044;-63
2023/02/08 04:53:56;;;;;;;4.63;1.50;;;-7.70;99.90;;;;;;20902810;28;20083;-61
2023/02/08 05:03:58;;;;;;;3.83;1.60;;;-7.80;99.90;;;;;;20902197;28;20083;-61
2023/02/08 05:14:00;;;;;;;4.83;1.53;;;-7.70;99.90;;;;;;20903023;28;20029;-61
2023/02/08 05:24:01;;;;;;;3.57;1.43;;;-7.50;99.90;;;;;;20900108;28;20041;-62
2023/02/08 05:34:03;;;;;;;2.90;1.30;;;-7.60;99.90;;;;;;20901263;28;20063;-60
2023/02/08 05:44:05;;;;;;;4.20;1.30;;;-7.60;99.90;;;;;;20899332;28;20030;-60
2023/02/08 05:54:06;;;;;;;2.87;1.30;;;-7.90;99.90;;;;;;20912529;28;20025;-61
2023/02/08 06:04:08;;;;;;;2.00;1.00;;;-7.90;99.90;;;;;;20915537;28;20029;-63
2023/02/08 06:14:10;;;;;;;2.47;1.00;;;-8.10;99.90;;;;;;20913243;28;20478;-59
2023/02/08 06:24:12;;;;;;;3.47;1.40;;;-8.20;99.90;;;;;;20912856;28;20060;-61
2023/02/08 06:34:14;;;;;;;3.30;1.27;;;-8.30;99.90;;;;;;20913531;28;20043;-61
2023/02/08 06:44:16;;;;;;;3.77;1.53;;;-8.40;99.90;;;;;;20910286;28;20386;-61
2023/02/08 06:54:17;;;;;;;3.00;1.30;;;-8.30;99.90;;;;;;20910675;28;20037;-61
2023/02/08 07:04:19;;;;;;;3.40;1.80;;;-7.90;99.90;;;;;;20909295;28;20036;-61
2023/02/08 07:14:21;;;;;;;4.40;2.00;;;-7.90;99.90;;;;;;20909038;28;20032;-60
2023/02/08 07:24:23;;;;;;;3.83;1.53;;;-8.00;99.90;;;;;;20911533;28;20098;-61
2023/02/08 07:34:25;;;;;;;5.50;1.97;;;-7.80;99.90;;;;;;20906632;28;20079;-63
2023/02/08 07:44:27;;;;;;;3.70;2.00;;;-7.60;99.90;;;;;;20906410;28;20039;-60
2023/02/08 07:54:29;;;;;;;5.15;2.50;;;-7.00;99.90;;;;;;20907212;28;20025;-60
2023/02/08 08:04:30;;;;;;;5.82;2.95;;;-5.80;99.90;;;;;;20906269;28;20033;-60
2023/02/08 08:14:32;;;;;;;6.97;3.42;;;-4.50;99.90;;;;;;20904741;28;20041;-63
2023/02/08 08:24:34;;;;;;;8.25;3.75;;;-3.40;99.90;;;;;;20904698;28;20474;-61
2023/02/08 08:34:36;;;;;;;10.55;5.78;;;-2.50;99.90;;;;;;20904299;28;21170;-60
2023/02/08 08:44:38;;;;;;;12.98;6.13;;;-1.50;99.50;;;;;;20903512;28;20036;-59
2023/02/08 08:54:39;;;;;;;9.48;5.65;;;-0.40;98.00;;;;;;20899918;28;20028;-59
2023/02/08 09:04:41;;;;;;;9.30;5.55;;;0.50;97.70;;;;;;20902089;28;20502;-60
2023/02/08 09:14:43;;;;;;;11.10;6.35;;;0.90;95.30;;;;;;20901848;28;20428;-59
2023/02/08 09:24:45;;;;;;;9.52;5.35;;;1.40;95.00;;;;;;20910771;28;20071;-59
2023/02/08 09:34:47;;;;;;;10.73;5.80;;;1.60;92.50;;;;;;20918120;28;20028;-58
2023/02/08 09:45:04;;;;;;;10.82;6.32;;;2.00;92.60;;;;;;20917297;28;20032;-58
2023/02/08 09:55:33;;;;;;;11.63;6.55;;;2.30;92.00;;;;;;20912603;28;20029;-61
2023/02/08 10:05:35;;;;;;;11.15;7.05;;;2.30;92.20;;;;;;20912510;28;20037;-59
2023/02/08 10:15:42;;;;;;;11.20;7.15;;;2.40;91.30;;;;;;20915157;28;20033;-61
2023/02/08 10:25:56;;;;;;;11.82;7.20;;;2.80;92.60;;;;;;20912755;28;20429;-58
2023/02/08 10:35:58;;;;;;;13.07;7.68;;;3.00;91.90;;;;;;20912824;28;20029;-60
2023/02/08 10:46:26;;;;;;;12.88;8.07;;;3.30;91.60;;;;;;20914640;28;20029;-59
2023/02/08 10:56:41;;;;;;;12.73;8.63;;;3.00;91.90;;;;;;20818508;28;20418;-60
2023/02/08 11:06:44;;;;;;;13.20;8.18;;;3.20;92.90;;;;;;20785577;28;20168;-60
2023/02/08 11:16:54;;;;;;;14.20;7.82;;;3.20;92.00;;;;;;20817972;28;20045;-60
2023/02/08 11:27:00;;;;;;;14.57;8.10;;;3.30;93.00;;;;;;20840547;28;20386;-60
2023/02/08 11:37:22;;;;;;;13.30;7.88;;;3.40;91.90;;;;;;20911001;28;20066;-59
2023/02/08 11:47:30;;;;;;;12.75;8.20;;;3.50;91.20;;;;;;20904052;28;20025;-58
2023/02/08 11:57:32;;;;;;;15.90;9.30;;;3.60;92.00;;;;;;20906766;28;20024;-58
2023/02/08 12:07:54;;;;;;;15.25;8.57;;;3.40;91.00;;;;;;20908473;28;20036;-59
2023/02/08 12:18:08;;;;;;;13.60;8.63;;;3.30;91.00;;;;;;20905100;28;20049;-58
2023/02/08 12:28:22;;;;;;;16.48;9.45;;;3.40;91.40;;;;;;20901399;28;20036;-59
2023/02/08 12:49:29;;;;;;;15.57;8.95;;;3.00;90.70;;;;;;20903465;28;20029;-59
2023/02/08 12:59:51;;;;;;;18.05;9.50;;;3.20;91.10;;;;;;20901163;28;20024;-59
2023/02/08 13:09:56;;;;;;;19.90;10.07;;;3.40;91.90;;;;;;20899495;28;20094;-59
2023/02/08 13:20:25;;;;;;;18.85;9.60;;;3.70;91.40;;;;;;20901623;28;20392;-60
2023/02/08 13:30:26;;;;;;;14.75;9.27;;;3.40;89.30;;;;;;20895689;28;20041;-60
2023/02/08 13:40:32;;;;;;;17.38;9.75;;;3.10;90.70;;;;;;20900756;28;20386;-63
2023/02/08 13:50:47;;;;;;;17.80;9.15;;;2.50;91.30;;;;;;20900817;28;20033;-60
2023/02/08 14:00:52;;;;;;;18.80;9.02;;;2.20;91.30;;;;;;20900476;28;20024;-60
2023/02/08 14:11:19;;;;;;;15.98;9.20;;;1.60;90.50;;;;;;20906144;28;20102;-60
2023/02/08 14:21:38;;;;;;;19.15;9.82;;;0.60;90.70;;;;;;20911080;28;20095;-61
2023/02/08 14:31:42;;;;;;;16.10;8.40;;;-0.50;93.10;;;;;;20914218;28;20433;-60
2023/02/08 14:41:53;;;;;;;17.10;8.80;;;-0.90;93.60;;;;;;20911783;28;20028;-61
2023/02/08 14:52:06;;;;;;;19.88;9.38;;;-1.20;92.50;;;;;;20909770;28;20055;-61
2023/02/08 15:02:18;;;;;;;19.38;10.20;;;-1.50;93.70;;;;;;20909963;28;20075;-62
2023/02/08 15:12:31;;;;;;;18.60;9.20;;;-1.90;95.00;;;;;;20909187;28;20037;-59
2023/02/08 15:22:39;;;;;;;19.05;8.50;;;-2.20;95.00;;;;;;20908188;28;20020;-60
2023/02/08 15:32:40;;;;;;;18.75;9.00;;;-2.60;95.30;;;;;;20909032;28;20029;-60
2023/02/08 15:42:43;;;;;;;19.30;8.85;;;-3.10;95.90;;;;;;20906974;28;20033;-60
2023/02/08 15:52:45;;;;;;;19.48;9.25;;;-3.60;96.80;;;;;;20906276;28;20037;-63
2023/02/08 16:02:54;;;;;;;20.00;8.75;;;-4.10;97.30;;;;;;20903903;28;20463;-63
2023/02/08 16:12:58;;;;;;;18.80;8.50;;;-4.50;98.30;;;;;;20823441;28;20508;-60
2023/02/08 16:23:26;;;;;;;22.02;9.50;;;-4.80;99.30;;;;;;20822670;28;20029;-60
2023/02/08 16:33:30;;;;;;;20.30;9.43;;;-5.20;99.70;;;;;;20821464;28;20483;-61
2023/02/08 16:43:32;;;;;;;19.70;8.48;;;-5.60;99.90;;;;;;20819982;28;20029;-61
2023/02/08 16:53:34;;;;;;;24.55;10.82;;;-5.90;99.90;;;;;;20820605;28;20030;-62
2023/02/08 17:03:37;;;;;;;18.70;8.88;;;-6.30;99.90;;;;;;20825217;28;20099;-63
2023/02/08 17:13:38;;;;;;;20.80;8.37;;;-6.50;99.90;;;;;;20901975;28;20058;-62
2023/02/08 17:23:40;;;;;;;19.23;7.95;;;-6.60;99.90;;;;;;20901621;28;20029;-62
2023/02/08 17:33:42;;;;;;;19.67;9.37;;;-6.70;99.90;;;;;;20902530;28;20433;-63
2023/02/08 17:43:44;;;;;;;18.47;8.40;;;-6.90;99.90;;;;;;20903426;28;20021;-62
2023/02/08 17:53:46;;;;;;;21.10;8.60;;;-7.10;99.90;;;;;;20916770;28;20082;-62
2023/02/08 18:03:50;;;;;;;21.20;9.33;;;-7.20;99.90;;;;;;20916071;28;20048;-60
2023/02/08 18:13:53;;;;;;;22.00;9.27;;;-7.30;99.90;;;;;;20915328;28;20036;-63
2023/02/08 18:23:55;;;;;;;21.90;8.10;;;-7.40;99.90;;;;;;20911632;28;20059;-60
2023/02/08 18:33:56;;;;;;;20.17;8.67;;;-7.50;99.90;;;;;;20915106;28;20470;-61
2023/02/08 18:43:58;;;;;;;22.07;9.27;;;-7.40;99.90;;;;;;20911528;28;20079;-63
2023/02/08 18:54:00;;;;;;;22.00;9.73;;;-7.40;99.90;;;;;;20911677;28;20025;-62
2023/02/08 19:04:02;;;;;;;20.60;9.63;;;-7.40;99.90;;;;;;20909979;28;20441;-61
2023/02/08 19:14:12;;;;;;;23.37;9.77;;;-7.50;99.90;;;;;;20909521;28;20094;-60
2023/02/08 19:24:14;;;;;;;18.37;9.03;;;-7.60;99.90;;;;;;20911875;28;20029;-61
2023/02/08 19:34:17;;;;;;;21.63;9.83;;;-7.60;99.90;;;;;;20909181;28;20029;-62
2023/02/08 19:44:19;;;;;;;20.83;9.97;;;-7.80;99.90;;;;;;20906207;28;20028;-61
2023/02/08 19:54:21;;;;;;;22.90;10.50;;;-7.90;99.90;;;;;;20904627;28;20373;-61
2023/02/08 20:04:23;;;;;;;24.57;10.13;;;-8.10;99.90;;;;;;20906129;28;20048;-61
2023/02/08 20:14:31;;;;;;;25.73;11.13;;;-8.30;99.90;;;;;;20905466;28;20029;-61
2023/02/08 20:24:33;;;;;;;26.60;10.10;;;-8.40;99.90;;;;;;20905129;28;20098;-60
2023/02/08 20:34:35;;;;;;;24.37;10.43;;;-8.40;99.90;;;;;;20903285;28;20382;-61
2023/02/08 20:44:36;;;;;;;28.87;10.27;;;-8.40;99.90;;;;;;20907272;28;20444;-61
2023/02/08 20:54:40;;;;;;;23.17;9.93;;;-8.50;99.90;;;;;;20903076;28;20556;-61
2023/02/08 21:04:41;;;;;;;26.40;11.43;;;-8.60;99.90;;;;;;20902602;28;20041;-61
2023/02/08 21:14:43;;;;;;;24.53;10.97;;;-8.40;99.90;;;;;;20901948;28;20040;-61
2023/02/08 21:24:45;;;;;;;25.00;10.53;;;-8.00;99.90;;;;;;20900267;28;20457;-61
2023/02/08 21:34:49;;;;;;;22.20;10.47;;;-7.70;99.90;;;;;;20900230;28;20029;-61
2023/02/08 21:44:51;;;;;;;22.13;9.37;;;-7.50;99.90;;;;;;20900907;28;20037;-61
2023/02/08 21:54:53;;;;;;;22.23;9.43;;;-7.40;99.90;;;;;;20900376;28;20029;-61
2023/02/08 22:04:57;;;;;;;24.15;9.85;;;-6.90;99.90;;;;;;20900031;28;20049;-61
2023/02/08 22:14:59;;;;;;;19.70;8.82;;;-6.90;99.90;;;;;;20901476;28;20060;-60
2023/02/08 22:25:01;;;;;;;17.38;7.97;;;-6.90;99.90;;;;;;20900493;28;20440;-61
2023/02/08 22:35:03;;;;;;;17.42;7.45;;;-6.90;99.90;;;;;;20910025;28;20033;-61
2023/02/08 22:45:06;;;;;;;14.57;7.22;;;-7.00;99.90;;;;;;20910269;28;20481;-60
2023/02/08 22:55:08;;;;;;;15.65;7.28;;;-7.10;99.90;;;;;;20912302;28;20482;-61
2023/02/08 23:05:10;;;;;;;17.60;7.03;;;-7.00;99.90;;;;;;20911454;28;20049;-61
2023/02/08 23:15:11;;;;;;;14.63;6.72;;;-6.90;99.90;;;;;;20910888;28;20059;-62
2023/02/08 23:25:14;;;;;;;13.10;5.45;;;-6.80;99.90;;;;;;20908850;28;20040;-62
2023/02/08 23:35:16;;;;;;;12.77;5.85;;;-6.70;99.90;;;;;;20909230;28;20029;-62
2023/02/08 23:45:17;;;;;;;10.73;5.60;;;-6.70;99.90;;;;;;20908369;28;20029;-59
2023/02/08 23:55:19;;;;;;;12.95;6.13;;;-6.70;99.90;;;;;;20907664;28;20036;-61
